sensor_id;sensor_type;location;lat;lon;timestamp;P1;durP1;ratioP1;P2;durP2;ratioP2
948;SDS011;461;51.436;7.312;2023-06-26T05:56:34;13.30;;;7.47;;
948;SDS011;461;51.436;7.312;2023-06-26T05:59:01;11.90;;;7.53;;
948;SDS011;461;51.436;7.312;2023-06-26T06:01:27;8.47;;;7.33;;
948;SDS011;461;51.436;7.312;2023-06-26T06:03:58;7.70;;;6.30;;
948;SDS011;461;51.436;7.312;2023-06-26T06:06:24;7.67;;;6.67;;
948;SDS011;461;51.436;7.312;2023-06-26T06:08:51;8.97;;;7.40;;
948;SDS011;461;51.436;7.312;2023-06-26T06:11:17;11.60;;;7.10;;
948;SDS011;461;51.436;7.312;2023-06-26T06:13:43;13.27;;;6.67;;
948;SDS011;461;51.436;7.312;2023-06-26T06:16:09;10.47;;;7.20;;
948;SDS011;461;51.436;7.312;2023-06-26T06:18:36;9.00;;;6.87;;
948;SDS011;461;51.436;7.312;2023-06-26T06:21:02;9.60;;;7.47;;
948;SDS011;461;51.436;7.312;2023-06-26T06:23:28;7.57;;;5.50;;
948;SDS011;461;51.436;7.312;2023-06-26T06:25:54;9.80;;;6.50;;
948;SDS011;461;51.436;7.312;2023-06-26T06:28:20;8.80;;;6.80;;
948;SDS011;461;51.436;7.312;2023-06-26T06:30:46;10.47;;;5.87;;
948;SDS011;461;51.436;7.312;2023-06-26T06:33:13;10.23;;;6.10;;
948;SDS011;461;51.436;7.312;2023-06-26T06:35:39;6.97;;;5.90;;
948;SDS011;461;51.436;7.312;2023-06-26T06:38:05;8.00;;;5.63;;
948;SDS011;461;51.436;7.312;2023-06-26T06:40:31;10.30;;;5.43;;
948;SDS011;461;51.436;7.312;2023-06-26T06:42:58;8.53;;;6.30;;
948;SDS011;461;51.436;7.312;2023-06-26T06:45:24;12.23;;;6.63;;
948;SDS011;461;51.436;7.312;2023-06-26T06:47:50;8.27;;;6.20;;
948;SDS011;461;51.436;7.312;2023-06-26T06:50:16;9.77;;;5.43;;
948;SDS011;461;51.436;7.312;2023-06-26T06:52:43;8.60;;;6.33;;
948;SDS011;461;51.436;7.312;2023-06-26T06:55:09;8.20;;;5.90;;
948;SDS011;461;51.436;7.312;2023-06-26T06:57:35;6.93;;;5.77;;
948;SDS011;461;51.436;7.312;2023-06-26T07:00:12;6.27;;;5.33;;
948;SDS011;461;51.436;7.312;2023-06-26T07:02:42;6.97;;;5.60;;
948;SDS011;461;51.436;7.312;2023-06-26T07:05:09;7.80;;;5.57;;
948;SDS011;461;51.436;7.312;2023-06-26T07:07:35;12.00;;;5.67;;
948;SDS011;461;51.436;7.312;2023-06-26T07:10:05;9.83;;;5.50;;
948;SDS011;461;51.436;7.312;2023-06-26T07:12:33;9.33;;;5.20;;
948;SDS011;461;51.436;7.312;2023-06-26T07:15:00;10.83;;;6.30;;
948;SDS011;461;51.436;7.312;2023-06-26T07:17:26;9.50;;;6.80;;
948;SDS011;461;51.436;7.312;2023-06-26T07:19:52;11.57;;;6.73;;
948;SDS011;461;51.436;7.312;2023-06-26T07:22:18;10.33;;;6.43;;
948;SDS011;461;51.436;7.312;2023-06-26T07:24:46;11.40;;;7.00;;
948;SDS011;461;51.436;7.312;2023-06-26T07:27:13;12.80;;;5.70;;
948;SDS011;461;51.436;7.312;2023-06-26T07:29:40;6.63;;;6.00;;
948;SDS011;461;51.436;7.312;2023-06-26T07:32:06;11.07;;;5.87;;
948;SDS011;461;51.436;7.312;2023-06-26T07:34:34;11.93;;;6.20;;
948;SDS011;461;51.436;7.312;2023-06-26T07:37:00;12.00;;;5.93;;
948;SDS011;461;51.436;7.312;2023-06-26T07:39:26;10.33;;;5.83;;
948;SDS011;461;51.436;7.312;2023-06-26T07:41:53;10.33;;;8.07;;
948;SDS011;461;51.436;7.312;2023-06-26T07:44:19;8.60;;;5.97;;
948;SDS011;461;51.436;7.312;2023-06-26T07:46:51;13.60;;;6.80;;
948;SDS011;461;51.436;7.312;2023-06-26T07:52:49;12.00;;;6.70;;
948;SDS011;461;51.436;7.312;2023-06-26T07:55:18;10.47;;;6.30;;
948;SDS011;461;51.436;7.312;2023-06-26T07:57:48;9.13;;;6.00;;
948;SDS011;461;51.436;7.312;2023-06-26T08:00:17;13.80;;;7.43;;
948;SDS011;461;51.436;7.312;2023-06-26T08:02:49;9.70;;;7.10;;
948;SDS011;461;51.436;7.312;2023-06-26T08:05:16;8.77;;;5.60;;
948;SDS011;461;51.436;7.312;2023-06-26T08:07:42;9.63;;;7.30;;
948;SDS011;461;51.436;7.312;2023-06-26T08:10:09;16.10;;;7.20;;
948;SDS011;461;51.436;7.312;2023-06-26T08:12:35;14.17;;;7.53;;
948;SDS011;461;51.436;7.312;2023-06-26T08:15:05;8.43;;;6.83;;
948;SDS011;461;51.436;7.312;2023-06-26T08:17:31;9.63;;;6.97;;
948;SDS011;461;51.436;7.312;2023-06-26T08:19:57;10.33;;;7.23;;
948;SDS011;461;51.436;7.312;2023-06-26T08:22:23;11.50;;;8.40;;
948;SDS011;461;51.436;7.312;2023-06-26T08:24:49;11.20;;;7.10;;
948;SDS011;461;51.436;7.312;2023-06-26T08:27:15;9.20;;;8.10;;
948;SDS011;461;51.436;7.312;2023-06-26T08:29:41;8.40;;;6.70;;
948;SDS011;461;51.436;7.312;2023-06-26T08:32:08;16.33;;;7.00;;
948;SDS011;461;51.436;7.312;2023-06-26T08:34:34;9.60;;;6.53;;
948;SDS011;461;51.436;7.312;2023-06-26T08:37:00;9.47;;;6.30;;
948;SDS011;461;51.436;7.312;2023-06-26T08:39:26;11.77;;;5.73;;
948;SDS011;461;51.436;7.312;2023-06-26T08:41:53;12.13;;;5.37;;
948;SDS011;461;51.436;7.312;2023-06-26T08:44:19;9.23;;;7.23;;
948;SDS011;461;51.436;7.312;2023-06-26T08:46:49;11.37;;;6.00;;
948;SDS011;461;51.436;7.312;2023-06-26T08:50:17;12.50;;;7.10;;
948;SDS011;461;51.436;7.312;2023-06-26T08:54:58;10.73;;;7.43;;
948;SDS011;461;51.436;7.312;2023-06-26T08:57:25;12.00;;;6.60;;
948;SDS011;461;51.436;7.312;2023-06-26T08:59:51;12.60;;;6.33;;
948;SDS011;461;51.436;7.312;2023-06-26T09:02:18;9.37;;;5.63;;
948;SDS011;461;51.436;7.312;2023-06-26T09:04:47;7.70;;;6.50;;
948;SDS011;461;51.436;7.312;2023-06-26T09:07:14;9.53;;;6.40;;
948;SDS011;461;51.436;7.312;2023-06-26T09:09:40;9.40;;;7.20;;
948;SDS011;461;51.436;7.312;2023-06-26T09:12:06;11.60;;;6.87;;
948;SDS011;461;51.436;7.312;2023-06-26T09:14:34;10.23;;;7.27;;
948;SDS011;461;51.436;7.312;2023-06-26T09:17:00;12.73;;;7.83;;
948;SDS011;461;51.436;7.312;2023-06-26T09:19:27;12.13;;;7.60;;
948;SDS011;461;51.436;7.312;2023-06-26T09:21:53;10.10;;;6.50;;
948;SDS011;461;51.436;7.312;2023-06-26T09:24:20;10.13;;;6.83;;
948;SDS011;461;51.436;7.312;2023-06-26T09:26:47;12.50;;;7.67;;
948;SDS011;461;51.436;7.312;2023-06-26T09:29:13;10.20;;;6.77;;
948;SDS011;461;51.436;7.312;2023-06-26T09:31:40;10.47;;;6.67;;
948;SDS011;461;51.436;7.312;2023-06-26T09:34:06;12.33;;;6.23;;
948;SDS011;461;51.436;7.312;2023-06-26T09:36:33;12.60;;;5.57;;
948;SDS011;461;51.436;7.312;2023-06-26T09:39:04;8.53;;;5.50;;
948;SDS011;461;51.436;7.312;2023-06-26T09:41:33;9.20;;;5.83;;
948;SDS011;461;51.436;7.312;2023-06-26T09:44:00;13.03;;;5.13;;
948;SDS011;461;51.436;7.312;2023-06-26T09:46:29;6.87;;;4.63;;
948;SDS011;461;51.436;7.312;2023-06-26T09:51:24;8.50;;;5.63;;
948;SDS011;461;51.436;7.312;2023-06-26T09:53:50;10.50;;;4.87;;
948;SDS011;461;51.436;7.312;2023-06-26T09:56:17;7.77;;;4.90;;
948;SDS011;461;51.436;7.312;2023-06-26T09:58:43;10.60;;;4.53;;
948;SDS011;461;51.436;7.312;2023-06-26T10:01:09;6.77;;;4.53;;
948;SDS011;461;51.436;7.312;2023-06-26T10:03:35;8.77;;;4.60;;
948;SDS011;461;51.436;7.312;2023-06-26T10:06:02;7.70;;;4.97;;
948;SDS011;461;51.436;7.312;2023-06-26T10:08:28;9.63;;;4.90;;
948;SDS011;461;51.436;7.312;2023-06-26T10:10:55;9.17;;;4.70;;
948;SDS011;461;51.436;7.312;2023-06-26T10:13:24;7.40;;;4.73;;
948;SDS011;461;51.436;7.312;2023-06-26T10:15:51;10.47;;;4.63;;
948;SDS011;461;51.436;7.312;2023-06-26T10:18:17;5.20;;;4.13;;
948;SDS011;461;51.436;7.312;2023-06-26T10:20:45;12.53;;;7.50;;
948;SDS011;461;51.436;7.312;2023-06-26T10:23:12;9.60;;;4.27;;
948;SDS011;461;51.436;7.312;2023-06-26T10:25:40;11.50;;;5.30;;
948;SDS011;461;51.436;7.312;2023-06-26T10:28:08;8.57;;;4.53;;
948;SDS011;461;51.436;7.312;2023-06-26T10:30:36;7.43;;;4.17;;
948;SDS011;461;51.436;7.312;2023-06-26T10:33:02;7.63;;;4.33;;
948;SDS011;461;51.436;7.312;2023-06-26T10:35:29;7.00;;;4.27;;
948;SDS011;461;51.436;7.312;2023-06-26T10:38:00;8.67;;;4.33;;
948;SDS011;461;51.436;7.312;2023-06-26T10:40:39;12.63;;;4.40;;
948;SDS011;461;51.436;7.312;2023-06-26T10:43:10;5.43;;;3.87;;
948;SDS011;461;51.436;7.312;2023-06-26T10:45:45;11.47;;;4.07;;
948;SDS011;461;51.436;7.312;2023-06-26T10:48:14;5.60;;;3.70;;
948;SDS011;461;51.436;7.312;2023-06-26T10:50:40;7.47;;;4.27;;
948;SDS011;461;51.436;7.312;2023-06-26T10:55:50;13.63;;;4.40;;
948;SDS011;461;51.436;7.312;2023-06-26T10:58:31;8.90;;;3.73;;
948;SDS011;461;51.436;7.312;2023-06-26T11:03:47;8.57;;;4.50;;
948;SDS011;461;51.436;7.312;2023-06-26T11:06:21;5.63;;;3.90;;
948;SDS011;461;51.436;7.312;2023-06-26T11:08:52;18.30;;;7.80;;
948;SDS011;461;51.436;7.312;2023-06-26T11:11:19;8.87;;;5.60;;
948;SDS011;461;51.436;7.312;2023-06-26T11:13:46;10.20;;;4.30;;
948;SDS011;461;51.436;7.312;2023-06-26T11:16:13;8.10;;;3.90;;
948;SDS011;461;51.436;7.312;2023-06-26T11:18:42;7.10;;;4.70;;
948;SDS011;461;51.436;7.312;2023-06-26T11:23:45;7.17;;;3.93;;
948;SDS011;461;51.436;7.312;2023-06-26T11:26:15;11.63;;;4.57;;
948;SDS011;461;51.436;7.312;2023-06-26T11:28:48;11.10;;;4.30;;
948;SDS011;461;51.436;7.312;2023-06-26T11:31:28;6.53;;;3.20;;
948;SDS011;461;51.436;7.312;2023-06-26T11:33:58;6.17;;;3.50;;
948;SDS011;461;51.436;7.312;2023-06-26T11:36:25;9.10;;;3.90;;
948;SDS011;461;51.436;7.312;2023-06-26T11:38:54;7.83;;;4.50;;
948;SDS011;461;51.436;7.312;2023-06-26T11:41:21;4.90;;;3.90;;
948;SDS011;461;51.436;7.312;2023-06-26T11:43:47;8.73;;;4.60;;
948;SDS011;461;51.436;7.312;2023-06-26T11:46:15;9.37;;;4.43;;
948;SDS011;461;51.436;7.312;2023-06-26T11:48:42;5.90;;;4.40;;
948;SDS011;461;51.436;7.312;2023-06-26T11:51:17;5.13;;;4.33;;
948;SDS011;461;51.436;7.312;2023-06-26T11:56:16;9.43;;;4.50;;
948;SDS011;461;51.436;7.312;2023-06-26T12:04:05;4.57;;;2.47;;
948;SDS011;461;51.436;7.312;2023-06-26T12:06:32;6.53;;;3.73;;
948;SDS011;461;51.436;7.312;2023-06-26T12:09:00;4.63;;;3.23;;
948;SDS011;461;51.436;7.312;2023-06-26T12:11:26;5.90;;;2.20;;
948;SDS011;461;51.436;7.312;2023-06-26T12:13:56;7.17;;;3.13;;
948;SDS011;461;51.436;7.312;2023-06-26T12:16:29;3.97;;;2.63;;
948;SDS011;461;51.436;7.312;2023-06-26T12:18:59;7.73;;;2.87;;
948;SDS011;461;51.436;7.312;2023-06-26T12:24:10;3.87;;;2.43;;
948;SDS011;461;51.436;7.312;2023-06-26T12:26:38;3.97;;;2.50;;
948;SDS011;461;51.436;7.312;2023-06-26T12:29:05;5.80;;;2.53;;
948;SDS011;461;51.436;7.312;2023-06-26T12:31:34;3.70;;;2.30;;
948;SDS011;461;51.436;7.312;2023-06-26T12:55:20;3.83;;;1.90;;
948;SDS011;461;51.436;7.312;2023-06-26T13:08:42;5.20;;;1.70;;
948;SDS011;461;51.436;7.312;2023-06-26T13:11:08;4.30;;;1.70;;
948;SDS011;461;51.436;7.312;2023-06-26T13:13:35;2.63;;;1.60;;
948;SDS011;461;51.436;7.312;2023-06-26T13:16:01;3.57;;;1.80;;
948;SDS011;461;51.436;7.312;2023-06-26T13:18:27;4.47;;;1.80;;
948;SDS011;461;51.436;7.312;2023-06-26T13:20:53;3.73;;;2.00;;
948;SDS011;461;51.436;7.312;2023-06-26T13:23:19;4.47;;;1.93;;
948;SDS011;461;51.436;7.312;2023-06-26T13:25:45;3.20;;;2.00;;
948;SDS011;461;51.436;7.312;2023-06-26T13:28:11;2.23;;;1.60;;
948;SDS011;461;51.436;7.312;2023-06-26T13:30:37;4.67;;;1.97;;
948;SDS011;461;51.436;7.312;2023-06-26T13:33:03;3.50;;;1.63;;
948;SDS011;461;51.436;7.312;2023-06-26T13:35:30;2.40;;;1.87;;
948;SDS011;461;51.436;7.312;2023-06-26T13:37:56;5.73;;;2.23;;
948;SDS011;461;51.436;7.312;2023-06-26T13:40:22;4.23;;;1.93;;
948;SDS011;461;51.436;7.312;2023-06-26T13:42:48;2.70;;;1.60;;
948;SDS011;461;51.436;7.312;2023-06-26T13:45:14;2.33;;;1.80;;
948;SDS011;461;51.436;7.312;2023-06-26T13:47:40;6.57;;;1.93;;
948;SDS011;461;51.436;7.312;2023-06-26T13:50:07;3.87;;;1.90;;
948;SDS011;461;51.436;7.312;2023-06-26T13:52:33;2.73;;;1.63;;
948;SDS011;461;51.436;7.312;2023-06-26T13:55:00;2.90;;;1.60;;
948;SDS011;461;51.436;7.312;2023-06-26T13:57:29;3.70;;;1.90;;
948;SDS011;461;51.436;7.312;2023-06-26T13:59:55;4.03;;;2.00;;
948;SDS011;461;51.436;7.312;2023-06-26T14:02:21;6.90;;;2.37;;
948;SDS011;461;51.436;7.312;2023-06-26T14:04:48;6.37;;;1.90;;
948;SDS011;461;51.436;7.312;2023-06-26T14:07:14;5.00;;;1.60;;
948;SDS011;461;51.436;7.312;2023-06-26T14:09:40;2.63;;;1.73;;
948;SDS011;461;51.436;7.312;2023-06-26T14:12:07;5.10;;;1.80;;
948;SDS011;461;51.436;7.312;2023-06-26T14:14:33;4.70;;;1.90;;
948;SDS011;461;51.436;7.312;2023-06-26T14:16:59;4.67;;;1.83;;
948;SDS011;461;51.436;7.312;2023-06-26T14:19:25;6.20;;;2.00;;
948;SDS011;461;51.436;7.312;2023-06-26T14:21:51;6.67;;;1.83;;
948;SDS011;461;51.436;7.312;2023-06-26T14:24:17;2.27;;;1.53;;
948;SDS011;461;51.436;7.312;2023-06-26T14:26:43;3.57;;;1.67;;
948;SDS011;461;51.436;7.312;2023-06-26T14:29:09;4.00;;;1.77;;
948;SDS011;461;51.436;7.312;2023-06-26T14:31:35;2.97;;;1.70;;
948;SDS011;461;51.436;7.312;2023-06-26T14:34:03;5.23;;;2.03;;
948;SDS011;461;51.436;7.312;2023-06-26T14:36:29;3.60;;;2.00;;
948;SDS011;461;51.436;7.312;2023-06-26T14:38:58;5.17;;;2.03;;
948;SDS011;461;51.436;7.312;2023-06-26T14:41:24;4.93;;;1.70;;
948;SDS011;461;51.436;7.312;2023-06-26T14:43:50;3.20;;;1.80;;
948;SDS011;461;51.436;7.312;2023-06-26T14:46:17;2.60;;;1.90;;
948;SDS011;461;51.436;7.312;2023-06-26T14:48:44;2.87;;;1.77;;
948;SDS011;461;51.436;7.312;2023-06-26T14:51:11;2.50;;;1.53;;
948;SDS011;461;51.436;7.312;2023-06-26T14:53:37;4.60;;;1.77;;
948;SDS011;461;51.436;7.312;2023-06-26T14:56:05;4.63;;;1.63;;
948;SDS011;461;51.436;7.312;2023-06-26T14:58:33;2.30;;;1.60;;
948;SDS011;461;51.436;7.312;2023-06-26T15:00:59;2.73;;;1.47;;
948;SDS011;461;51.436;7.312;2023-06-26T15:03:25;3.37;;;1.77;;
948;SDS011;461;51.436;7.312;2023-06-26T15:05:51;2.33;;;1.50;;
948;SDS011;461;51.436;7.312;2023-06-26T15:08:17;1.93;;;1.73;;
948;SDS011;461;51.436;7.312;2023-06-26T15:10:43;4.87;;;2.00;;
948;SDS011;461;51.436;7.312;2023-06-26T15:13:10;4.23;;;1.90;;
948;SDS011;461;51.436;7.312;2023-06-26T15:15:36;4.03;;;1.40;;
948;SDS011;461;51.436;7.312;2023-06-26T15:18:02;2.77;;;1.73;;
948;SDS011;461;51.436;7.312;2023-06-26T15:20:29;3.77;;;1.83;;
948;SDS011;461;51.436;7.312;2023-06-26T15:22:55;1.77;;;1.27;;
948;SDS011;461;51.436;7.312;2023-06-26T15:25:23;1.70;;;1.40;;
948;SDS011;461;51.436;7.312;2023-06-26T15:27:49;3.93;;;1.83;;
948;SDS011;461;51.436;7.312;2023-06-26T15:30:16;3.97;;;1.70;;
948;SDS011;461;51.436;7.312;2023-06-26T15:32:42;4.67;;;1.50;;
948;SDS011;461;51.436;7.312;2023-06-26T15:35:08;2.33;;;1.30;;
948;SDS011;461;51.436;7.312;2023-06-26T15:37:35;5.33;;;3.20;;
948;SDS011;461;51.436;7.312;2023-06-26T15:40:01;2.67;;;1.90;;
948;SDS011;461;51.436;7.312;2023-06-26T15:42:28;4.00;;;1.50;;
948;SDS011;461;51.436;7.312;2023-06-26T15:44:54;3.07;;;1.80;;
948;SDS011;461;51.436;7.312;2023-06-26T15:47:20;6.90;;;1.73;;
948;SDS011;461;51.436;7.312;2023-06-26T15:49:46;3.73;;;1.87;;
948;SDS011;461;51.436;7.312;2023-06-26T15:52:12;5.70;;;2.40;;
948;SDS011;461;51.436;7.312;2023-06-26T15:54:38;6.90;;;2.10;;
948;SDS011;461;51.436;7.312;2023-06-26T15:57:04;3.30;;;1.70;;
948;SDS011;461;51.436;7.312;2023-06-26T16:02:02;2.77;;;1.67;;
948;SDS011;461;51.436;7.312;2023-06-26T16:04:28;5.37;;;2.10;;
948;SDS011;461;51.436;7.312;2023-06-26T16:06:56;4.00;;;1.80;;
948;SDS011;461;51.436;7.312;2023-06-26T16:09:23;2.20;;;1.80;;
948;SDS011;461;51.436;7.312;2023-06-26T16:11:49;3.70;;;1.77;;
948;SDS011;461;51.436;7.312;2023-06-26T16:14:15;2.40;;;1.60;;
948;SDS011;461;51.436;7.312;2023-06-26T16:16:41;7.07;;;2.53;;
948;SDS011;461;51.436;7.312;2023-06-26T16:19:07;3.70;;;2.30;;
948;SDS011;461;51.436;7.312;2023-06-26T16:21:34;3.43;;;1.63;;
948;SDS011;461;51.436;7.312;2023-06-26T16:24:00;4.73;;;2.03;;
948;SDS011;461;51.436;7.312;2023-06-26T16:26:26;6.20;;;1.90;;
948;SDS011;461;51.436;7.312;2023-06-26T16:28:52;3.50;;;1.83;;
948;SDS011;461;51.436;7.312;2023-06-26T16:31:18;3.77;;;1.80;;
948;SDS011;461;51.436;7.312;2023-06-26T16:36:21;7.50;;;2.30;;
948;SDS011;461;51.436;7.312;2023-06-26T16:38:50;3.47;;;1.80;;
948;SDS011;461;51.436;7.312;2023-06-26T16:41:16;6.47;;;1.90;;
948;SDS011;461;51.436;7.312;2023-06-26T16:43:42;3.37;;;1.67;;
948;SDS011;461;51.436;7.312;2023-06-26T16:46:10;4.17;;;1.70;;
948;SDS011;461;51.436;7.312;2023-06-26T20:55:54;6.87;;;1.90;;
948;SDS011;461;51.436;7.312;2023-06-26T20:58:20;2.90;;;1.73;;
948;SDS011;461;51.436;7.312;2023-06-26T21:00:46;3.77;;;1.90;;
948;SDS011;461;51.436;7.312;2023-06-26T21:03:21;2.33;;;1.60;;
948;SDS011;461;51.436;7.312;2023-06-26T21:05:50;5.40;;;1.70;;
948;SDS011;461;51.436;7.312;2023-06-26T21:08:19;2.70;;;1.83;;
948;SDS011;461;51.436;7.312;2023-06-26T21:10:52;4.10;;;1.80;;
948;SDS011;461;51.436;7.312;2023-06-26T21:13:39;2.17;;;1.87;;
948;SDS011;461;51.436;7.312;2023-06-26T21:19:23;4.57;;;2.07;;
948;SDS011;461;51.436;7.312;2023-06-26T21:21:59;2.70;;;1.87;;
948;SDS011;461;51.436;7.312;2023-06-26T21:24:28;7.33;;;1.80;;
948;SDS011;461;51.436;7.312;2023-06-26T21:27:01;4.10;;;1.90;;
948;SDS011;461;51.436;7.312;2023-06-26T21:29:50;3.00;;;1.90;;
948;SDS011;461;51.436;7.312;2023-06-26T21:32:19;2.57;;;1.80;;
948;SDS011;461;51.436;7.312;2023-06-26T22:47:47;4.03;;;2.10;;
948;SDS011;461;51.436;7.312;2023-06-26T22:50:14;3.67;;;2.37;;
948;SDS011;461;51.436;7.312;2023-06-26T22:52:41;8.10;;;2.00;;
948;SDS011;461;51.436;7.312;2023-06-26T22:55:07;5.30;;;2.03;;
948;SDS011;461;51.436;7.312;2023-06-26T22:57:33;4.47;;;2.30;;
948;SDS011;461;51.436;7.312;2023-06-26T22:59:59;2.33;;;2.13;;
948;SDS011;461;51.436;7.312;2023-06-26T23:02:25;3.83;;;2.17;;
948;SDS011;461;51.436;7.312;2023-06-26T23:04:51;3.30;;;1.60;;
948;SDS011;461;51.436;7.312;2023-06-26T23:07:17;6.27;;;2.30;;
948;SDS011;461;51.436;7.312;2023-06-26T23:09:45;3.43;;;2.00;;
948;SDS011;461;51.436;7.312;2023-06-26T23:12:11;4.53;;;1.80;;
948;SDS011;461;51.436;7.312;2023-06-26T23:14:38;2.87;;;2.30;;
948;SDS011;461;51.436;7.312;2023-06-26T23:17:05;5.60;;;2.53;;
948;SDS011;461;51.436;7.312;2023-06-26T23:19:31;3.23;;;2.53;;
948;SDS011;461;51.436;7.312;2023-06-26T23:21:58;2.60;;;2.03;;
948;SDS011;461;51.436;7.312;2023-06-26T23:24:25;3.60;;;2.60;;
948;SDS011;461;51.436;7.312;2023-06-26T23:26:51;5.87;;;2.57;;
948;SDS011;461;51.436;7.312;2023-06-26T23:29:17;6.13;;;2.80;;
948;SDS011;461;51.436;7.312;2023-06-26T23:31:48;5.70;;;2.53;;
948;SDS011;461;51.436;7.312;2023-06-26T23:34:14;6.90;;;2.40;;
948;SDS011;461;51.436;7.312;2023-06-26T23:36:45;4.00;;;2.20;;
948;SDS011;461;51.436;7.312;2023-06-26T23:39:17;3.73;;;2.80;;
948;SDS011;461;51.436;7.312;2023-06-26T23:41:44;6.10;;;2.67;;
948;SDS011;461;51.436;7.312;2023-06-26T23:44:10;6.50;;;2.50;;
948;SDS011;461;51.436;7.312;2023-06-26T23:46:46;6.80;;;2.77;;
948;SDS011;461;51.436;7.312;2023-06-26T23:49:13;3.20;;;2.20;;
948;SDS011;461;51.436;7.312;2023-06-26T23:51:39;7.07;;;2.80;;
948;SDS011;461;51.436;7.312;2023-06-26T23:54:05;5.50;;;2.40;;
948;SDS011;461;51.436;7.312;2023-06-26T23:56:31;3.13;;;2.20;;
948;SDS011;461;51.436;7.312;2023-06-26T23:58:57;4.60;;;2.53;;
